Williams Lake, Canada
Current Conditions -  °F | °C
As of 3:00 AM on Saturday 25 Oct 2014 (Local Time) from CYWL Reporting Station
Overcast Overcast  
Wind Chill: 32°   Ceiling: 14000
Heat Index: 39°   Visibility: 15mi
Dew Point: 30°   Wind: 10mph
Humidity: 70%   Direction: 80°E
Pressure: 29.82"   Gusts: NA
Location:  52.13°N, 122.14°W
Report Text: CYWL 251000Z 08009KT 15SM OVC140 04/M01 A2982 RMK AC8 SLP120
Loading
Personal Weather Stations






























Interactive Weather Map
Tropical Storm Tracking
New forecast layout! Learn more

10-Day Weather Forecast

Advertisements
Track Severe Weather on mobile